createdAt,value
2017-11-20T00:00:49.724Z,5.80
2017-11-20T00:03:18.068Z,5.80
2017-11-20T00:05:45.745Z,5.70
2017-11-20T00:08:14.125Z,5.70
2017-11-20T00:10:42.472Z,5.70
2017-11-20T00:13:11.511Z,5.70
2017-11-20T00:15:40.024Z,5.60
2017-11-20T00:18:08.356Z,5.60
2017-11-20T00:20:36.705Z,5.60
2017-11-20T00:23:05.828Z,5.50
2017-11-20T00:25:34.208Z,5.50
2017-11-20T00:28:02.543Z,5.50
2017-11-20T00:30:30.886Z,5.50
2017-11-20T00:32:59.746Z,5.50
2017-11-20T00:35:28.075Z,5.50
2017-11-20T00:37:57.177Z,5.50
2017-11-20T00:40:26.273Z,5.50
2017-11-20T00:42:55.451Z,5.50
2017-11-20T00:45:25.113Z,5.50
2017-11-20T00:47:53.463Z,5.50
2017-11-20T00:50:21.815Z,5.50
2017-11-20T00:52:51.066Z,5.50
2017-11-20T00:55:20.359Z,5.50
2017-11-20T00:57:48.903Z,5.50
2017-11-20T01:00:18.155Z,5.50
2017-11-20T01:02:46.521Z,5.50
2017-11-20T01:05:15.793Z,5.40
2017-11-20T01:07:44.144Z,5.50
2017-11-20T01:10:12.524Z,5.40
2017-11-20T01:12:41.384Z,5.40
2017-11-20T01:15:09.967Z,5.50
2017-11-20T01:17:38.296Z,5.40
2017-11-20T01:20:06.624Z,5.40
2017-11-20T01:22:34.992Z,5.40
2017-11-20T01:25:03.332Z,5.40
2017-11-20T01:27:31.659Z,5.40
2017-11-20T01:30:00.015Z,5.40
2017-11-20T01:32:29.742Z,5.40
2017-11-20T01:34:58.098Z,5.40
2017-11-20T01:37:26.731Z,5.50
2017-11-20T01:39:55.057Z,5.50
2017-11-20T01:42:23.383Z,5.50
2017-11-20T01:44:53.739Z,5.50
2017-11-20T01:47:22.980Z,5.50
2017-11-20T01:49:51.562Z,5.50
2017-11-20T01:52:20.061Z,5.50
2017-11-20T01:54:48.393Z,5.50
2017-11-20T01:57:17.506Z,5.50
2017-11-20T01:59:45.502Z,5.50
2017-11-20T02:02:13.532Z,5.50
2017-11-20T02:04:42.617Z,5.50
2017-11-20T02:07:11.901Z,5.50
2017-11-20T02:09:40.228Z,5.50
2017-11-20T02:12:08.547Z,5.50
2017-11-20T02:14:36.887Z,5.50
2017-11-20T02:17:05.255Z,5.60
2017-11-20T02:19:33.268Z,5.50
2017-11-20T02:22:02.471Z,5.50
2017-11-20T02:24:33.816Z,5.50
2017-11-20T02:27:01.521Z,5.50
2017-11-20T02:29:29.182Z,5.50
2017-11-20T02:31:56.846Z,5.50
2017-11-20T02:34:25.479Z,5.50
2017-11-20T02:36:54.242Z,5.50
2017-11-20T02:39:22.554Z,5.50
2017-11-20T02:41:50.791Z,5.50
2017-11-20T02:44:18.448Z,5.50
2017-11-20T02:46:46.784Z,5.50
2017-11-20T02:49:14.461Z,5.50
2017-11-20T02:51:42.672Z,5.40
2017-11-20T02:54:10.682Z,5.40
2017-11-20T02:56:40.379Z,5.40
2017-11-20T02:59:09.311Z,5.40
2017-11-20T03:01:37.303Z,5.40
2017-11-20T03:04:05.736Z,5.30
2017-11-20T03:06:34.204Z,5.30
2017-11-20T03:09:03.098Z,5.30
2017-11-20T03:11:31.415Z,5.20
2017-11-20T03:13:59.751Z,5.20
2017-11-20T03:16:28.076Z,5.10
2017-11-20T03:18:56.456Z,5.10
2017-11-20T03:21:24.967Z,5.00
2017-11-20T03:23:53.305Z,5.00
2017-11-20T03:26:21.728Z,4.90
2017-11-20T03:28:49.897Z,5.00
2017-11-20T03:31:18.690Z,4.90
2017-11-20T03:33:48.061Z,4.90
2017-11-20T03:36:16.387Z,4.90
2017-11-20T03:38:44.739Z,4.90
2017-11-20T03:41:12.759Z,4.90
2017-11-20T03:43:41.164Z,4.90
2017-11-20T03:46:08.853Z,4.90
2017-11-20T03:48:37.174Z,4.90
2017-11-20T03:51:05.549Z,4.90
2017-11-20T03:53:33.892Z,4.90
2017-11-20T03:56:02.216Z,5.00
2017-11-20T03:58:30.547Z,4.90
2017-11-20T04:00:58.885Z,4.90
2017-11-20T04:03:27.263Z,4.90
2017-11-20T04:05:55.594Z,5.00
2017-11-20T04:08:24.221Z,4.90
2017-11-20T04:10:52.677Z,4.90
2017-11-20T04:13:21.795Z,4.90
2017-11-20T04:15:49.438Z,4.90
2017-11-20T04:18:17.828Z,4.90
2017-11-20T04:20:46.166Z,4.90
2017-11-20T04:23:15.296Z,4.90
2017-11-20T04:25:43.669Z,4.90
2017-11-20T04:28:17.607Z,4.90
2017-11-20T04:30:45.629Z,4.90
2017-11-20T04:33:13.958Z,4.90
2017-11-20T04:35:42.486Z,4.90
2017-11-20T04:38:10.873Z,4.90
2017-11-20T04:40:39.228Z,4.90
2017-11-20T04:43:07.765Z,4.90
2017-11-20T04:45:35.901Z,4.90
2017-11-20T04:48:04.238Z,4.90
2017-11-20T04:50:32.447Z,4.90
2017-11-20T04:53:00.823Z,4.90
2017-11-20T04:55:29.160Z,4.90
2017-11-20T04:57:57.505Z,4.90
2017-11-20T05:00:25.498Z,4.90
2017-11-20T05:02:54.022Z,5.00
2017-11-20T05:05:22.352Z,5.00
2017-11-20T05:07:50.687Z,5.00
2017-11-20T05:10:19.099Z,4.90
2017-11-20T05:12:47.432Z,5.00
2017-11-20T05:15:20.053Z,4.90
2017-11-20T05:17:48.410Z,4.90
2017-11-20T05:20:16.753Z,4.90
2017-11-20T05:22:45.084Z,4.90
2017-11-20T05:25:13.411Z,4.90
2017-11-20T05:27:41.751Z,4.90
2017-11-20T05:30:10.082Z,4.90
2017-11-20T05:32:38.730Z,4.90
2017-11-20T05:35:07.149Z,4.90
2017-11-20T05:37:35.719Z,4.90
2017-11-20T05:40:04.365Z,4.80
2017-11-20T05:42:32.707Z,4.80
2017-11-20T05:45:01.249Z,4.80
2017-11-20T05:47:29.597Z,4.90
2017-11-20T05:49:58.125Z,4.90
2017-11-20T05:52:26.763Z,4.90
2017-11-20T06:04:35.126Z,5.00
2017-11-20T06:07:03.807Z,5.00
2017-11-20T06:09:32.164Z,5.00
2017-11-20T06:12:00.499Z,5.00
2017-11-20T06:14:29.020Z,5.00
2017-11-20T06:16:58.516Z,5.00
2017-11-20T06:19:27.466Z,5.00
2017-11-20T06:21:56.006Z,5.00
2017-11-20T06:24:24.863Z,5.00
2017-11-20T06:26:54.001Z,5.10
2017-11-20T06:29:22.672Z,5.10
2017-11-20T06:31:51.011Z,5.10
2017-11-20T06:34:19.729Z,5.10
2017-11-20T06:36:48.110Z,5.10
2017-11-20T06:39:16.436Z,5.10
2017-11-20T06:41:44.770Z,5.10
2017-11-20T06:44:13.112Z,5.10
2017-11-20T06:46:42.961Z,5.30
2017-11-20T06:49:11.489Z,5.20
2017-11-20T06:51:39.874Z,5.30
2017-11-20T06:54:08.382Z,5.30
2017-11-20T06:56:36.786Z,5.30
2017-11-20T06:59:04.821Z,5.20
2017-11-20T07:01:33.156Z,5.30
2017-11-20T07:04:01.471Z,5.30
2017-11-20T07:06:29.854Z,5.30
2017-11-20T07:08:58.187Z,5.40
2017-11-20T07:11:26.702Z,5.40
2017-11-20T07:13:55.799Z,5.30
2017-11-20T07:16:24.134Z,5.30
2017-11-20T07:18:52.475Z,5.30
2017-11-20T07:21:21.029Z,5.30
2017-11-20T07:23:49.445Z,5.30
2017-11-20T07:26:28.942Z,5.30
2017-11-20T07:29:08.454Z,5.20
2017-11-20T07:31:36.958Z,5.30
2017-11-20T07:34:16.299Z,5.20
2017-11-20T07:36:55.713Z,5.20
2017-11-20T07:39:38.589Z,5.20
2017-11-20T07:42:06.920Z,5.10
2017-11-20T07:44:35.244Z,5.20
2017-11-20T07:47:03.564Z,5.10
2017-11-20T07:49:31.935Z,5.20
2017-11-20T07:52:00.251Z,5.20
2017-11-20T07:54:28.729Z,5.10
2017-11-20T07:56:57.051Z,5.10
2017-11-20T07:59:25.590Z,5.10
2017-11-20T08:01:53.934Z,5.10
2017-11-20T08:04:22.257Z,5.10
2017-11-20T08:06:50.773Z,5.10
2017-11-20T08:09:19.179Z,5.10
2017-11-20T08:11:47.502Z,5.10
2017-11-20T08:14:15.846Z,5.10
2017-11-20T08:16:44.167Z,5.00
2017-11-20T08:19:12.650Z,5.10
2017-11-20T08:21:40.974Z,5.10
2017-11-20T08:24:09.509Z,5.00
2017-11-20T08:26:38.004Z,5.00
2017-11-20T08:29:06.346Z,5.00
2017-11-20T08:31:34.471Z,4.90
2017-11-20T08:34:03.010Z,4.90
2017-11-20T08:36:31.337Z,4.90
2017-11-20T08:38:59.664Z,4.80
2017-11-20T08:41:28.035Z,4.80
2017-11-20T08:43:56.535Z,4.70
2017-11-20T08:46:24.865Z,4.70
2017-11-20T08:48:54.190Z,4.80
2017-11-20T08:51:22.511Z,4.80
2017-11-20T08:53:50.855Z,4.80
2017-11-20T08:56:19.212Z,4.80
2017-11-20T08:58:47.690Z,4.80
2017-11-20T09:01:16.067Z,4.90
2017-11-20T09:03:44.135Z,5.00
2017-11-20T09:06:12.234Z,5.00
2017-11-20T09:08:40.239Z,4.90
2017-11-20T09:11:09.337Z,5.00
2017-11-20T09:13:37.333Z,5.00
2017-11-20T09:16:05.683Z,5.00
2017-11-20T09:18:34.390Z,5.00
2017-11-20T09:21:02.725Z,5.10
2017-11-20T09:23:31.144Z,5.20
2017-11-20T09:25:59.788Z,5.30
2017-11-20T09:28:28.550Z,5.40
2017-11-20T09:30:57.633Z,5.40
2017-11-20T09:33:25.970Z,5.40
2017-11-20T09:35:54.300Z,5.40
2017-11-20T09:38:22.831Z,5.50
2017-11-20T09:40:51.189Z,5.50
2017-11-20T09:43:19.650Z,5.50
2017-11-20T09:45:48.738Z,5.50
2017-11-20T09:48:17.259Z,5.50
2017-11-20T09:50:45.123Z,5.40
2017-11-20T09:53:12.784Z,5.40
2017-11-20T09:55:40.476Z,5.40
2017-11-20T09:58:08.477Z,5.40
2017-11-20T10:00:36.216Z,5.40
2017-11-20T10:03:03.916Z,5.40
2017-11-20T10:05:31.920Z,5.40
2017-11-20T10:07:59.662Z,5.40
2017-11-20T10:10:28.037Z,5.40
2017-11-20T10:12:56.039Z,5.50
2017-11-20T10:15:24.080Z,5.50
2017-11-20T10:17:52.075Z,5.60
2017-11-20T10:20:20.494Z,5.60
2017-11-20T10:22:48.881Z,5.60
2017-11-20T10:25:16.956Z,5.50
2017-11-20T10:27:44.966Z,5.60
2017-11-20T10:30:12.837Z,5.60
2017-11-20T10:32:40.705Z,5.70
2017-11-20T10:35:08.695Z,5.70
2017-11-20T10:37:36.812Z,5.80
2017-11-20T10:40:05.135Z,5.80
2017-11-20T10:42:33.787Z,5.80
2017-11-20T10:45:01.429Z,5.80
2017-11-20T10:47:29.678Z,5.80
2017-11-20T10:49:57.735Z,5.90
2017-11-20T10:52:25.786Z,5.90
2017-11-20T10:54:54.649Z,6.00
2017-11-20T10:57:23.149Z,6.00
2017-11-20T11:01:11.134Z,6.00
2017-11-20T11:03:38.811Z,6.10
2017-11-20T11:06:06.498Z,6.10
2017-11-20T11:08:34.161Z,6.10
2017-11-20T11:11:01.833Z,6.10
2017-11-20T11:13:30.599Z,6.10
2017-11-20T11:15:59.025Z,6.10
2017-11-20T11:18:26.811Z,6.10
2017-11-20T11:20:55.057Z,6.00
2017-11-20T11:23:23.046Z,6.10
2017-11-20T11:25:51.034Z,6.10
2017-11-20T11:28:19.009Z,6.10
2017-11-20T11:30:47.066Z,6.10
2017-11-20T11:33:15.094Z,6.20
2017-11-20T11:35:42.815Z,6.20
2017-11-20T11:38:11.305Z,6.20
2017-11-20T11:40:40.090Z,6.20
2017-11-20T11:43:07.785Z,6.20
2017-11-20T11:45:35.899Z,6.30
2017-11-20T11:48:03.546Z,6.30
2017-11-20T11:50:31.215Z,6.40
2017-11-20T11:52:59.199Z,6.30
2017-11-20T11:55:27.101Z,6.30
2017-11-20T11:57:55.123Z,6.30
2017-11-20T12:00:25.511Z,6.30
2017-11-20T12:02:53.772Z,6.30
2017-11-20T12:05:21.438Z,6.30
2017-11-20T12:07:49.281Z,6.20
2017-11-20T12:10:17.355Z,6.20
2017-11-20T12:12:45.540Z,6.20
2017-11-20T12:15:13.207Z,6.20
2017-11-20T12:17:41.436Z,6.20
2017-11-20T12:20:09.090Z,6.20
2017-11-20T12:22:37.299Z,6.20
2017-11-20T12:25:04.988Z,6.20
2017-11-20T12:27:33.239Z,6.20
2017-11-20T12:30:01.706Z,6.30
2017-11-20T12:32:30.379Z,6.30
2017-11-20T12:34:58.146Z,6.30
2017-11-20T12:37:26.379Z,6.30
2017-11-20T12:39:54.818Z,6.40
2017-11-20T12:42:22.549Z,6.40
2017-11-20T12:44:52.019Z,6.40
2017-11-20T12:47:19.713Z,6.30
2017-11-20T12:49:47.377Z,6.40
2017-11-20T12:52:15.132Z,6.40
2017-11-20T12:54:42.797Z,6.40
2017-11-20T12:57:10.815Z,6.40
2017-11-20T12:59:39.000Z,6.30
2017-11-20T13:02:07.460Z,6.20
2017-11-20T13:04:35.507Z,6.20
2017-11-20T13:07:03.368Z,6.30
2017-11-20T13:09:31.365Z,6.20
2017-11-20T13:11:59.679Z,6.20
2017-11-20T13:14:27.664Z,6.30
2017-11-20T13:16:55.350Z,6.30
2017-11-20T13:19:26.179Z,6.30
2017-11-20T13:21:53.900Z,6.40
2017-11-20T13:24:21.644Z,6.40
2017-11-20T13:26:49.352Z,6.40
2017-11-20T13:29:18.329Z,6.40
2017-11-20T13:31:45.994Z,6.40
2017-11-20T13:34:13.683Z,6.40
2017-11-20T13:36:41.364Z,6.50
2017-11-20T13:39:09.035Z,6.50
2017-11-20T13:41:36.709Z,6.50
2017-11-20T13:44:04.412Z,6.50
2017-11-20T13:46:32.239Z,6.40
2017-11-20T13:48:59.916Z,6.50
2017-11-20T13:51:27.602Z,6.50
2017-11-20T13:53:55.631Z,6.50
2017-11-20T13:56:23.294Z,6.50
2017-11-20T13:58:50.973Z,6.40
2017-11-20T14:01:18.854Z,6.40
2017-11-20T14:03:47.306Z,6.30
2017-11-20T14:06:19.656Z,6.30
2017-11-20T14:08:47.578Z,6.30
2017-11-20T14:11:15.472Z,6.40
2017-11-20T14:13:43.165Z,6.40
2017-11-20T14:16:10.847Z,6.40
2017-11-20T14:18:38.511Z,6.40
2017-11-20T14:21:06.979Z,6.40
2017-11-20T14:23:34.982Z,6.40
2017-11-20T14:26:03.312Z,6.40
2017-11-20T14:28:31.301Z,6.40
2017-11-20T14:30:59.744Z,6.50
2017-11-20T14:33:27.425Z,6.40
2017-11-20T14:35:55.100Z,6.40
2017-11-20T14:38:22.800Z,6.40
2017-11-20T14:40:50.482Z,6.40
2017-11-20T14:43:20.123Z,6.50
2017-11-20T14:45:47.790Z,6.40
2017-11-20T14:48:26.361Z,6.50
2017-11-20T14:50:57.901Z,6.50
2017-11-20T14:53:26.495Z,6.50
2017-11-20T14:55:54.378Z,6.50
2017-11-20T14:58:22.050Z,6.50
2017-11-20T15:00:49.727Z,6.50
2017-11-20T15:03:17.566Z,6.50
2017-11-20T15:05:45.072Z,6.50
2017-11-20T15:08:12.734Z,6.50
2017-11-20T15:10:40.434Z,6.50
2017-11-20T15:13:08.111Z,6.60
2017-11-20T15:15:36.549Z,6.60
2017-11-20T15:18:04.231Z,6.60
2017-11-20T15:20:31.720Z,6.70
2017-11-20T15:23:00.429Z,6.60
2017-11-20T15:25:28.086Z,6.60
2017-11-20T15:27:55.568Z,6.70
2017-11-20T15:30:23.410Z,6.70
2017-11-20T15:32:51.118Z,6.70
2017-11-20T15:35:18.808Z,6.70
2017-11-20T15:37:46.689Z,6.70
2017-11-20T15:40:14.726Z,6.80
2017-11-20T15:42:43.833Z,6.80
2017-11-20T15:45:11.856Z,6.80
2017-11-20T15:47:40.835Z,6.80
2017-11-20T15:50:09.169Z,6.90
2017-11-20T15:52:37.508Z,6.90
2017-11-20T15:55:06.037Z,6.90
2017-11-20T15:57:34.368Z,6.90
2017-11-20T16:00:02.728Z,6.90
2017-11-20T16:02:31.116Z,6.90
2017-11-20T16:04:59.452Z,6.90
2017-11-20T16:07:27.795Z,7.00
2017-11-20T16:09:56.292Z,7.00
2017-11-20T16:12:24.624Z,7.00
2017-11-20T16:14:52.952Z,7.00
2017-11-20T16:17:21.274Z,7.10
2017-11-20T16:19:50.447Z,7.10
2017-11-20T16:22:18.789Z,7.10
2017-11-20T16:24:47.240Z,7.10
2017-11-20T16:27:15.573Z,7.20
2017-11-20T16:29:43.913Z,7.20
2017-11-20T16:32:13.213Z,7.20
2017-11-20T16:34:41.894Z,7.30
2017-11-20T16:37:10.219Z,7.30
2017-11-20T16:39:38.647Z,7.30
2017-11-20T16:42:06.951Z,7.30
2017-11-20T16:44:35.304Z,7.30
2017-11-20T16:47:03.297Z,7.30
2017-11-20T16:49:31.644Z,7.30
2017-11-20T16:52:00.026Z,7.40
2017-11-20T16:54:28.539Z,7.40
2017-11-20T16:57:07.990Z,7.40
2017-11-20T16:59:37.661Z,7.40
2017-11-20T17:02:27.139Z,7.50
2017-11-20T17:04:55.462Z,7.50
2017-11-20T17:07:23.477Z,7.50
2017-11-20T17:09:52.017Z,7.50
2017-11-20T17:12:20.336Z,7.60
2017-11-20T17:14:49.200Z,7.70
2017-11-20T17:17:17.776Z,7.70
2017-11-20T17:19:46.307Z,7.80
2017-11-20T17:22:14.654Z,7.80
2017-11-20T17:24:43.002Z,7.80
2017-11-20T17:27:11.339Z,7.80
2017-11-20T17:29:40.465Z,7.80
2017-11-20T17:32:08.894Z,7.80
2017-11-20T17:34:40.164Z,7.90
2017-11-20T17:37:09.252Z,7.90
2017-11-20T17:39:38.381Z,7.90
2017-11-20T17:42:06.748Z,8.00
2017-11-20T17:44:35.224Z,8.00
2017-11-20T17:47:04.114Z,8.00
2017-11-20T17:49:32.592Z,8.10
2017-11-20T17:52:00.970Z,8.10
2017-11-20T17:54:29.298Z,8.10
2017-11-20T17:56:57.640Z,8.10
2017-11-20T17:59:25.994Z,8.10
2017-11-20T18:01:54.136Z,8.20
2017-11-20T18:04:22.645Z,8.20
2017-11-20T18:06:51.006Z,8.20
2017-11-20T18:09:19.354Z,8.30
2017-11-20T18:11:47.915Z,8.30
2017-11-20T18:14:16.460Z,8.30
2017-11-20T18:16:44.667Z,8.30
2017-11-20T18:19:14.140Z,8.30
2017-11-20T18:21:42.144Z,8.40
2017-11-20T18:24:10.227Z,8.40
2017-11-20T18:26:39.422Z,8.40
2017-11-20T18:29:08.659Z,8.40
2017-11-20T18:31:37.954Z,8.50
2017-11-20T18:34:06.307Z,8.40
2017-11-20T18:36:34.451Z,8.40
2017-11-20T18:39:02.485Z,8.50
2017-11-20T18:41:30.915Z,8.50
2017-11-20T18:44:00.023Z,8.50
2017-11-20T18:46:28.227Z,8.50
2017-11-20T18:48:56.364Z,8.50
2017-11-20T18:51:24.911Z,8.50
2017-11-20T18:53:53.264Z,8.60
2017-11-20T18:56:21.140Z,8.60
2017-11-20T18:58:50.376Z,8.60
2017-11-20T19:01:29.682Z,8.60
2017-11-20T19:04:09.576Z,8.60
2017-11-20T19:06:49.108Z,8.70
2017-11-20T19:09:16.904Z,8.70
2017-11-20T19:11:44.945Z,8.70
2017-11-20T19:14:13.520Z,8.70
2017-11-20T19:16:41.847Z,8.70
2017-11-20T19:19:10.306Z,8.70
2017-11-20T19:21:38.955Z,8.70
2017-11-20T19:24:08.049Z,8.80
2017-11-20T19:26:37.606Z,8.80
2017-11-20T19:29:06.716Z,8.80
2017-11-20T19:31:35.056Z,8.80
2017-11-20T19:34:03.480Z,8.80
2017-11-20T19:36:31.488Z,8.90
2017-11-20T19:39:00.769Z,8.90
2017-11-20T19:41:28.450Z,8.90
2017-11-20T19:43:57.035Z,8.90
2017-11-20T19:46:25.939Z,8.90
2017-11-20T19:48:54.888Z,8.90
2017-11-20T19:51:24.476Z,9.00
2017-11-20T19:53:53.319Z,9.00
2017-11-20T19:56:21.676Z,9.00
2017-11-20T19:58:50.038Z,9.00
2017-11-20T20:01:19.249Z,9.00
2017-11-20T20:03:48.718Z,9.10
2017-11-20T20:06:18.896Z,9.00
2017-11-20T20:08:47.400Z,9.00
2017-11-20T20:11:15.770Z,9.00
2017-11-20T20:13:47.167Z,9.00
2017-11-20T20:16:20.849Z,9.10
2017-11-20T20:18:49.537Z,9.10
2017-11-20T20:21:18.019Z,9.10
2017-11-20T20:23:46.414Z,9.10
2017-11-20T20:26:15.667Z,9.10
2017-11-20T20:28:44.207Z,9.10
2017-11-20T20:31:12.633Z,9.10
2017-11-20T20:33:42.031Z,9.10
2017-11-20T20:36:10.470Z,9.10
2017-11-20T20:38:39.864Z,9.10
2017-11-20T20:41:08.319Z,9.10
2017-11-20T20:43:38.236Z,9.00
2017-11-20T20:46:06.590Z,9.10
2017-11-20T20:48:35.000Z,9.10
2017-11-20T20:51:03.349Z,9.20
2017-11-20T20:53:31.763Z,9.20
2017-11-20T20:56:01.472Z,9.20
2017-11-20T20:58:29.828Z,9.20
2017-11-20T21:00:58.280Z,9.20
2017-11-20T21:03:27.385Z,9.20
2017-11-20T21:05:55.956Z,9.20
2017-11-20T21:08:24.328Z,9.20
2017-11-20T21:10:58.154Z,9.20
2017-11-20T21:13:26.504Z,9.20
2017-11-20T21:15:54.989Z,9.30
2017-11-20T21:18:24.192Z,9.30
2017-11-20T21:20:54.487Z,9.30
2017-11-20T21:23:23.682Z,9.30
2017-11-20T21:25:52.058Z,9.40
2017-11-20T21:28:23.539Z,9.40
2017-11-20T21:30:51.932Z,9.40
2017-11-20T21:33:21.370Z,9.40
2017-11-20T21:35:49.706Z,9.40
2017-11-20T21:38:18.351Z,9.40
2017-11-20T21:40:46.788Z,9.40
2017-11-20T21:43:14.832Z,9.40
2017-11-20T21:45:43.256Z,9.40
2017-11-20T21:48:11.645Z,9.50
2017-11-20T21:50:39.995Z,9.50
2017-11-20T21:53:09.224Z,9.50
2017-11-20T21:55:37.649Z,9.50
2017-11-20T21:58:06.014Z,9.50
2017-11-20T22:00:33.740Z,9.50
2017-11-20T22:03:02.119Z,9.50
2017-11-20T22:05:30.508Z,9.50
2017-11-20T22:08:00.613Z,9.50
2017-11-20T22:10:28.940Z,9.50
2017-11-20T22:13:08.510Z,9.60
2017-11-20T22:15:37.558Z,9.60
2017-11-20T22:18:05.920Z,9.60
2017-11-20T22:20:34.451Z,9.60
2017-11-20T22:23:03.699Z,9.60
2017-11-20T22:25:31.767Z,9.60
2017-11-20T22:28:00.149Z,9.70
2017-11-20T22:30:27.829Z,9.60
2017-11-20T22:32:56.160Z,9.70
2017-11-20T22:35:24.597Z,9.70
2017-11-20T22:37:53.285Z,9.70
2017-11-20T22:40:21.697Z,9.70
2017-11-20T22:42:50.043Z,9.70
2017-11-20T22:45:18.459Z,9.70
2017-11-20T22:47:47.814Z,9.70
2017-11-20T22:50:16.175Z,9.70
2017-11-20T22:52:44.776Z,9.70
2017-11-20T22:55:14.021Z,9.80
2017-11-20T22:57:42.371Z,9.80
2017-11-20T23:00:11.752Z,9.80
2017-11-20T23:02:40.784Z,9.80
2017-11-20T23:05:10.491Z,9.80
2017-11-20T23:20:33.837Z,9.80
2017-11-20T23:23:04.029Z,9.80
2017-11-20T23:25:32.453Z,9.80
2017-11-20T23:28:01.439Z,9.90
2017-11-20T23:30:29.833Z,9.90
2017-11-20T23:32:58.163Z,9.80
2017-11-20T23:35:27.918Z,9.90
2017-11-20T23:37:56.450Z,9.90
2017-11-20T23:40:24.822Z,9.90
2017-11-20T23:42:54.898Z,10.00
2017-11-20T23:45:24.166Z,10.00
2017-11-20T23:47:52.525Z,10.00
2017-11-20T23:50:21.156Z,10.00
2017-11-20T23:52:49.513Z,10.00
2017-11-20T23:55:17.867Z,10.00
2017-11-20T23:57:46.231Z,10.00
